createdAt,value
2018-08-11T00:00:33.129Z,4.10
2018-08-11T00:03:01.238Z,4.30
2018-08-11T00:05:29.417Z,4.50
2018-08-11T00:07:57.705Z,3.77
2018-08-11T00:10:25.915Z,3.83
2018-08-11T00:12:54.059Z,4.13
2018-08-11T00:15:22.273Z,4.20
2018-08-11T00:17:50.397Z,4.00
2018-08-11T00:20:22.249Z,4.77
2018-08-11T00:22:50.525Z,4.40
2018-08-11T00:25:18.713Z,4.83
2018-08-11T00:27:46.901Z,4.47
2018-08-11T00:30:16.585Z,5.17
2018-08-11T00:32:45.325Z,4.07
2018-08-11T00:35:14.345Z,4.63
2018-08-11T00:37:42.897Z,4.23
2018-08-11T00:40:15.933Z,4.10
2018-08-11T00:42:45.173Z,3.33
2018-08-11T00:45:14.336Z,3.80
2018-08-11T00:47:42.544Z,3.70
2018-08-11T00:50:17.726Z,3.80
2018-08-11T00:52:45.829Z,3.83
2018-08-11T00:55:14.445Z,3.77
2018-08-11T00:57:42.772Z,3.47
2018-08-11T01:00:14.542Z,3.60
2018-08-11T01:02:43.280Z,3.60
2018-08-11T01:05:13.708Z,3.50
2018-08-11T01:07:43.316Z,3.43
2018-08-11T01:10:12.273Z,3.57
2018-08-11T01:12:41.400Z,3.63
2018-08-11T01:15:12.758Z,3.13
2018-08-11T01:17:41.208Z,3.10
2018-08-11T01:20:10.557Z,3.17
2018-08-11T01:22:39.524Z,3.47
2018-08-11T01:25:08.214Z,3.63
2018-08-11T01:27:36.798Z,3.37
2018-08-11T01:30:07.057Z,3.13
2018-08-11T01:32:35.193Z,3.17
2018-08-11T01:35:03.742Z,2.77
2018-08-11T01:37:31.962Z,3.47
2018-08-11T01:40:00.175Z,3.10
2018-08-11T01:42:28.256Z,2.90
2018-08-11T01:44:56.321Z,3.00
2018-08-11T01:47:24.425Z,3.33
2018-08-11T01:49:52.725Z,2.90
2018-08-11T01:52:20.853Z,2.87
2018-08-11T01:54:49.030Z,2.80
2018-08-11T01:57:17.233Z,2.90
2018-08-11T01:59:45.413Z,2.60
2018-08-11T02:02:14.097Z,2.73
2018-08-11T02:04:42.260Z,2.80
2018-08-11T02:07:10.418Z,2.70
2018-08-11T02:09:38.649Z,3.00
2018-08-11T02:12:07.005Z,2.63
2018-08-11T02:14:35.189Z,2.90
2018-08-11T02:17:03.369Z,2.90
2018-08-11T02:19:31.714Z,2.93
2018-08-11T02:21:59.988Z,2.53
2018-08-11T02:24:28.137Z,2.80
2018-08-11T02:26:56.405Z,2.63
2018-08-11T02:29:24.761Z,2.80
2018-08-11T02:31:52.869Z,2.10
2018-08-11T02:34:21.120Z,2.63
2018-08-11T02:36:49.225Z,2.57
2018-08-11T02:39:17.389Z,2.20
2018-08-11T02:41:45.702Z,2.10
2018-08-11T02:44:13.902Z,2.20
2018-08-11T02:46:42.014Z,2.40
2018-08-11T02:49:10.237Z,2.13
2018-08-11T02:51:38.377Z,2.23
2018-08-11T02:54:06.565Z,2.30
2018-08-11T02:56:34.955Z,2.20
2018-08-11T02:59:03.317Z,2.70
2018-08-11T03:01:32.130Z,2.57
2018-08-11T03:04:00.305Z,2.73
2018-08-11T03:06:28.497Z,3.43
2018-08-11T03:08:56.665Z,3.27
2018-08-11T03:11:24.977Z,3.37
2018-08-11T03:13:53.120Z,3.10
2018-08-11T03:16:21.305Z,3.80
2018-08-11T03:18:49.422Z,3.43
2018-08-11T03:21:17.660Z,3.43
2018-08-11T03:23:45.826Z,2.97
2018-08-11T03:26:13.961Z,3.37
2018-08-11T03:28:42.452Z,2.90
2018-08-11T03:31:10.653Z,3.30
2018-08-11T03:33:38.769Z,3.07
2018-08-11T03:36:07.162Z,3.47
2018-08-11T03:38:35.353Z,3.40
2018-08-11T03:41:03.493Z,2.90
2018-08-11T03:43:31.694Z,3.00
2018-08-11T03:46:00.131Z,2.73
2018-08-11T03:48:28.246Z,2.80
2018-08-11T03:50:56.432Z,2.53
2018-08-11T03:53:24.605Z,2.53
2018-08-11T03:55:52.748Z,2.77
2018-08-11T03:58:21.044Z,2.20
2018-08-11T04:00:49.269Z,2.00
2018-08-11T04:03:17.385Z,1.87
2018-08-11T04:05:45.793Z,1.90
2018-08-11T04:08:13.952Z,1.83
2018-08-11T04:10:42.189Z,1.87
2018-08-11T04:13:10.293Z,2.07
2018-08-11T04:15:38.975Z,2.07
2018-08-11T04:18:07.488Z,2.70
2018-08-11T04:20:35.665Z,2.00
2018-08-11T04:23:03.840Z,1.77
2018-08-11T04:25:31.989Z,1.50
2018-08-11T04:28:00.179Z,1.40
2018-08-11T04:30:28.329Z,1.40
2018-08-11T04:32:56.513Z,1.40
2018-08-11T04:35:24.702Z,1.40
2018-08-11T04:37:52.837Z,1.80
2018-08-11T04:40:21.100Z,1.60
2018-08-11T04:42:49.337Z,1.47
2018-08-11T04:45:17.465Z,1.70
2018-08-11T04:47:45.688Z,1.60
2018-08-11T04:50:13.934Z,1.60
2018-08-11T04:52:42.211Z,1.60
2018-08-11T04:55:10.369Z,1.83
2018-08-11T04:57:38.581Z,1.60
2018-08-11T05:00:07.972Z,1.63
2018-08-11T05:02:36.122Z,1.67
2018-08-11T05:05:04.515Z,1.60
2018-08-11T05:07:32.733Z,1.70
2018-08-11T05:10:01.077Z,1.77
2018-08-11T05:12:29.269Z,2.07
2018-08-11T05:14:57.913Z,1.70
2018-08-11T05:17:26.333Z,1.90
2018-08-11T05:19:55.041Z,1.50
2018-08-11T05:22:23.149Z,1.13
2018-08-11T05:24:51.373Z,1.20
2018-08-11T05:27:19.923Z,1.27
2018-08-11T05:29:48.501Z,1.30
2018-08-11T05:32:16.839Z,1.30
2018-08-11T05:34:45.398Z,0.80
2018-08-11T05:37:14.273Z,0.80
2018-08-11T05:39:42.455Z,0.90
2018-08-11T05:42:10.593Z,0.77
2018-08-11T05:44:38.800Z,0.80
2018-08-11T05:47:06.997Z,1.00
2018-08-11T05:49:35.113Z,0.70
2018-08-11T05:52:03.288Z,0.90
2018-08-11T05:54:31.553Z,1.00
2018-08-11T05:56:59.868Z,0.93
2018-08-11T05:59:28.817Z,0.80
2018-08-11T06:01:57.106Z,0.70
2018-08-11T06:04:25.441Z,0.87
2018-08-11T06:06:53.565Z,0.60
2018-08-11T06:09:21.746Z,0.67
2018-08-11T06:11:50.055Z,0.60
2018-08-11T06:14:18.108Z,0.70
2018-08-11T06:16:46.265Z,0.60
2018-08-11T06:19:14.457Z,0.50
2018-08-11T06:21:42.634Z,0.70
2018-08-11T06:24:11.050Z,0.90
2018-08-11T06:26:39.148Z,0.60
2018-08-11T06:29:07.242Z,1.00
2018-08-11T06:31:35.567Z,1.03
2018-08-11T06:34:03.593Z,0.50
2018-08-11T06:36:31.969Z,0.90
2018-08-11T06:39:00.144Z,0.80
2018-08-11T06:41:28.681Z,1.10
2018-08-11T06:43:56.794Z,1.03
2018-08-11T06:46:25.030Z,1.10
2018-08-11T06:48:53.195Z,1.40
2018-08-11T06:51:21.346Z,1.40
2018-08-11T06:53:49.573Z,1.23
2018-08-11T06:56:17.686Z,1.30
2018-08-11T06:58:45.869Z,1.40
2018-08-11T07:01:13.937Z,1.83
2018-08-11T07:03:42.701Z,1.57
2018-08-11T07:06:10.910Z,2.23
2018-08-11T07:08:39.123Z,1.73
2018-08-11T07:11:07.412Z,1.60
2018-08-11T07:13:35.526Z,1.93
2018-08-11T07:16:03.756Z,1.60
2018-08-11T07:18:31.873Z,2.00
2018-08-11T07:20:59.949Z,1.77
2018-08-11T07:23:28.125Z,2.20
2018-08-11T07:25:56.390Z,1.53
2018-08-11T07:28:24.565Z,2.27
2018-08-11T07:30:53.051Z,2.60
2018-08-11T07:33:21.434Z,2.55
2018-08-11T07:35:49.815Z,2.60
2018-08-11T07:38:18.165Z,2.70
2018-08-11T07:40:46.489Z,3.10
2018-08-11T07:43:15.091Z,2.95
2018-08-11T07:45:43.741Z,3.37
2018-08-11T07:48:11.893Z,3.02
2018-08-11T07:50:40.110Z,3.02
2018-08-11T07:53:08.238Z,2.87
2018-08-11T07:55:36.609Z,3.50
2018-08-11T07:58:04.760Z,3.52
2018-08-11T08:00:32.877Z,2.92
2018-08-11T08:03:01.105Z,3.12
2018-08-11T08:05:29.237Z,3.12
2018-08-11T08:07:58.492Z,2.90
2018-08-11T08:10:26.801Z,2.67
2018-08-11T08:12:55.606Z,2.58
2018-08-11T08:15:23.776Z,3.58
2018-08-11T08:17:51.952Z,2.47
2018-08-11T08:20:20.388Z,2.90
2018-08-11T08:22:48.493Z,2.45
2018-08-11T08:25:16.773Z,2.60
2018-08-11T08:27:45.006Z,2.58
2018-08-11T08:30:13.334Z,2.65
2018-08-11T08:32:42.533Z,2.47
2018-08-11T08:35:11.325Z,2.40
2018-08-11T08:37:39.517Z,2.33
2018-08-11T08:40:08.301Z,1.98
2018-08-11T08:42:36.633Z,1.95
2018-08-11T08:45:07.025Z,2.30
2018-08-11T08:47:35.248Z,2.00
2018-08-11T08:50:03.344Z,1.90
2018-08-11T08:52:31.926Z,1.35
2018-08-11T08:55:00.165Z,1.85
2018-08-11T08:57:28.276Z,1.45
2018-08-11T08:59:56.532Z,1.30
2018-08-11T09:02:24.764Z,1.40
2018-08-11T09:04:53.146Z,1.45
2018-08-11T09:07:21.289Z,1.50
2018-08-11T09:09:49.867Z,1.35
2018-08-11T09:12:18.058Z,1.25
2018-08-11T09:14:46.229Z,1.35
2018-08-11T09:17:14.786Z,1.35
2018-08-11T09:19:43.218Z,1.40
2018-08-11T09:22:11.797Z,1.10
2018-08-11T09:24:40.140Z,1.20
2018-08-11T09:27:08.223Z,1.45
2018-08-11T09:29:36.908Z,1.42
2018-08-11T09:32:06.741Z,1.45
2018-08-11T09:34:34.933Z,1.67
2018-08-11T09:37:03.896Z,1.00
2018-08-11T09:39:32.797Z,1.20
2018-08-11T09:42:00.938Z,1.25
2018-08-11T09:44:29.477Z,1.30
2018-08-11T09:46:57.589Z,1.67
2018-08-11T09:50:50.444Z,1.00
2018-08-11T09:53:18.652Z,1.42
2018-08-11T09:55:48.065Z,1.00
2018-08-11T09:58:16.220Z,1.23
2018-08-11T10:00:50.236Z,1.60
2018-08-11T10:03:18.837Z,1.60
2018-08-11T10:05:47.445Z,1.40
2018-08-11T10:08:16.114Z,1.50
2018-08-11T10:10:45.230Z,1.92
2018-08-11T10:13:13.568Z,1.70
2018-08-11T10:15:41.913Z,1.20
2018-08-11T10:18:10.869Z,1.50
2018-08-11T10:20:39.053Z,1.20
2018-08-11T10:23:07.176Z,1.27
2018-08-11T10:25:35.351Z,0.90
2018-08-11T10:28:04.134Z,1.00
2018-08-11T10:30:32.305Z,1.17
2018-08-11T10:33:00.532Z,1.10
2018-08-11T10:35:28.677Z,0.95
2018-08-11T10:37:56.965Z,1.00
2018-08-11T10:40:25.112Z,1.22
2018-08-11T10:42:54.117Z,1.57
2018-08-11T10:45:22.433Z,1.43
2018-08-11T10:47:50.725Z,1.50
2018-08-11T10:50:18.854Z,1.60
2018-08-11T10:52:47.137Z,1.30
2018-08-11T10:55:15.334Z,1.50
2018-08-11T10:57:44.632Z,1.10
2018-08-11T11:00:12.796Z,1.20
2018-08-11T11:02:40.969Z,1.55
2018-08-11T11:05:09.945Z,1.30
2018-08-11T11:07:38.121Z,1.10
2018-08-11T11:10:07.128Z,1.13
2018-08-11T11:12:35.805Z,1.30
2018-08-11T11:15:04.657Z,1.25
2018-08-11T11:17:32.868Z,1.10
2018-08-11T11:20:01.103Z,1.00
2018-08-11T11:22:30.776Z,1.10
2018-08-11T11:24:59.869Z,1.00
2018-08-11T11:27:27.989Z,0.90
2018-08-11T11:29:56.261Z,1.02
2018-08-11T11:32:24.423Z,1.00
2018-08-11T11:34:53.057Z,1.17
2018-08-11T11:37:21.230Z,0.70
2018-08-11T11:39:49.757Z,0.93
2018-08-11T11:42:18.395Z,0.78
2018-08-11T11:44:46.600Z,0.68
2018-08-11T11:47:14.743Z,0.78
2018-08-11T11:49:42.950Z,0.80
2018-08-11T11:52:11.725Z,0.60
2018-08-11T11:54:40.539Z,0.95
2018-08-11T11:57:09.277Z,0.82
2018-08-11T11:59:37.657Z,0.60
2018-08-11T12:02:06.441Z,0.40
2018-08-11T12:04:35.426Z,0.35
2018-08-11T12:07:04.307Z,0.55
2018-08-11T12:09:32.393Z,0.60
2018-08-11T12:12:00.601Z,0.60
2018-08-11T12:14:29.685Z,0.40
2018-08-11T12:16:57.865Z,0.70
2018-08-11T12:19:26.110Z,0.40
2018-08-11T12:21:54.209Z,0.40
2018-08-11T12:24:22.369Z,0.30
2018-08-11T12:26:50.672Z,0.37
2018-08-11T12:29:18.940Z,0.57
2018-08-11T12:31:47.417Z,0.55
2018-08-11T12:34:16.356Z,0.60
2018-08-11T12:36:44.473Z,0.70
2018-08-11T12:39:12.729Z,0.72
2018-08-11T12:41:41.422Z,0.50
2018-08-11T12:44:10.937Z,0.60
2018-08-11T12:46:39.986Z,0.53
2018-08-11T12:49:08.293Z,0.60
2018-08-11T12:51:37.455Z,0.50
2018-08-11T12:54:06.421Z,0.60
2018-08-11T12:56:35.182Z,0.65
2018-08-11T12:59:03.405Z,0.78
2018-08-11T13:01:32.445Z,0.80
2018-08-11T13:04:00.558Z,0.68
2018-08-11T13:06:28.793Z,0.57
2018-08-11T13:08:56.900Z,0.60
2018-08-11T13:11:25.797Z,0.47
2018-08-11T13:13:53.987Z,0.50
2018-08-11T13:16:22.170Z,0.50
2018-08-11T13:18:50.329Z,0.47
2018-08-11T13:21:18.481Z,0.40
2018-08-11T13:23:46.650Z,0.25
2018-08-11T13:26:18.974Z,0.68
2018-08-11T13:28:47.237Z,0.50
2018-08-11T13:31:15.898Z,0.50
2018-08-11T13:33:44.107Z,0.40
2018-08-11T13:36:12.782Z,0.40
2018-08-11T13:38:41.369Z,0.33
2018-08-11T13:41:09.821Z,0.30
2018-08-11T13:43:37.881Z,0.50
2018-08-11T13:46:06.519Z,0.40
2018-08-11T13:48:35.334Z,0.50
2018-08-11T13:51:03.458Z,0.20
2018-08-11T13:53:31.693Z,0.40
2018-08-11T13:56:00.394Z,0.53
2018-08-11T13:58:29.668Z,0.40
2018-08-11T14:00:57.933Z,0.33
2018-08-11T14:03:26.100Z,0.53
2018-08-11T14:05:54.214Z,0.40
2018-08-11T14:08:22.458Z,0.45
2018-08-11T14:10:51.318Z,0.50
2018-08-11T14:13:20.017Z,0.30
2018-08-11T14:15:49.350Z,0.37
2018-08-11T14:18:17.581Z,0.60
2018-08-11T14:20:45.806Z,0.50
2018-08-11T14:23:15.489Z,0.42
2018-08-11T14:25:43.653Z,0.82
2018-08-11T14:28:11.853Z,0.70
2018-08-11T14:30:39.952Z,0.80
2018-08-11T14:33:09.080Z,0.68
2018-08-11T14:35:37.246Z,0.68
2018-08-11T14:38:05.688Z,0.53
2018-08-11T14:40:34.030Z,0.50
2018-08-11T14:43:02.393Z,0.50
2018-08-11T14:45:30.458Z,0.72
2018-08-11T14:47:58.735Z,0.45
2018-08-11T14:50:26.913Z,0.55
2018-08-11T14:52:55.289Z,0.30
2018-08-11T14:55:23.627Z,0.65
2018-08-11T14:57:51.817Z,0.37
2018-08-11T15:00:20.405Z,0.75
2018-08-11T15:02:48.913Z,0.47
2018-08-11T15:05:17.086Z,0.57
2018-08-11T15:07:45.285Z,0.57
2018-08-11T15:10:13.478Z,0.30
2018-08-11T15:12:41.893Z,0.57
2018-08-11T15:15:10.838Z,0.37
2018-08-11T15:17:40.257Z,0.40
2018-08-11T15:20:09.240Z,0.60
2018-08-11T15:22:37.906Z,0.40
2018-08-11T15:25:06.913Z,0.50
2018-08-11T15:27:35.035Z,0.50
2018-08-11T15:30:04.880Z,0.45
2018-08-11T15:32:33.053Z,0.50
2018-08-11T15:35:01.201Z,0.60
2018-08-11T15:37:29.802Z,0.60
2018-08-11T15:39:58.013Z,0.70
2018-08-11T15:42:26.641Z,0.42
2018-08-11T15:44:55.465Z,0.55
2018-08-11T15:47:23.731Z,0.45
2018-08-11T15:49:51.845Z,0.60
2018-08-11T15:52:19.990Z,0.60
2018-08-11T15:54:48.285Z,0.65
2018-08-11T15:57:16.909Z,0.55
2018-08-11T15:59:45.085Z,0.50
2018-08-11T16:02:13.169Z,0.53
2018-08-11T16:04:41.562Z,0.50
2018-08-11T16:07:10.165Z,0.50
2018-08-11T16:09:38.364Z,0.60
2018-08-11T16:12:06.546Z,0.50
2018-08-11T16:14:34.909Z,0.60
2018-08-11T16:17:03.032Z,0.93
2018-08-11T16:19:31.517Z,0.60
2018-08-11T16:22:00.395Z,0.70
2018-08-11T16:24:28.973Z,0.88
2018-08-11T16:26:57.069Z,0.80
2018-08-11T16:29:25.953Z,0.90
2018-08-11T16:31:54.590Z,0.62
2018-08-11T16:34:22.727Z,0.60
2018-08-11T16:36:50.961Z,0.60
2018-08-11T16:39:19.109Z,0.60
2018-08-11T16:41:47.442Z,0.90
2018-08-11T16:44:15.953Z,0.55
2018-08-11T16:46:44.842Z,0.62
2018-08-11T16:49:13.057Z,0.70
2018-08-11T16:51:41.745Z,0.37
2018-08-11T16:54:09.899Z,0.90
2018-08-11T16:56:38.666Z,0.40
2018-08-11T16:59:06.934Z,0.82
2018-08-11T17:01:35.138Z,0.82
2018-08-11T17:04:03.633Z,0.35
2018-08-11T17:06:31.945Z,0.82
2018-08-11T17:09:00.188Z,0.40
2018-08-11T17:11:29.001Z,0.50
2018-08-11T17:13:57.117Z,0.50
2018-08-11T17:16:25.563Z,0.50
2018-08-11T17:18:54.140Z,0.65
2018-08-11T17:21:23.058Z,0.70
2018-08-11T17:23:51.324Z,0.85
2018-08-11T17:26:19.408Z,0.53
2018-08-11T17:28:48.185Z,0.57
2018-08-11T17:31:17.785Z,0.50
2018-08-11T17:33:45.880Z,1.10
2018-08-11T17:36:14.085Z,0.70
2018-08-11T17:38:43.040Z,0.68
2018-08-11T17:41:11.225Z,0.60
2018-08-11T17:43:39.418Z,0.50
2018-08-11T17:46:08.003Z,0.50
2018-08-11T17:48:36.170Z,0.55
2018-08-11T17:51:04.381Z,0.50
2018-08-11T17:53:32.525Z,0.50
2018-08-11T17:56:01.285Z,0.53
2018-08-11T17:58:29.498Z,0.50
2018-08-11T18:00:58.157Z,0.57
2018-08-11T18:03:26.813Z,0.40
2018-08-11T18:05:54.906Z,0.50
2018-08-11T18:08:23.745Z,0.37
2018-08-11T18:10:51.881Z,0.47
2018-08-11T18:13:20.076Z,0.40
2018-08-11T18:15:48.265Z,0.47
2018-08-11T18:18:16.621Z,0.82
2018-08-11T18:20:45.038Z,0.50
2018-08-11T18:23:13.422Z,0.35
2018-08-11T18:25:41.873Z,0.62
2018-08-11T18:28:10.877Z,0.72
2018-08-11T18:30:39.284Z,0.40
2018-08-11T18:33:07.708Z,0.40
2018-08-11T18:35:36.137Z,0.72
2018-08-11T18:38:04.937Z,0.40
2018-08-11T18:40:33.205Z,0.40
2018-08-11T18:43:01.337Z,0.50
2018-08-11T18:45:29.775Z,0.57
2018-08-11T18:47:58.449Z,0.57
2018-08-11T18:50:27.022Z,0.47
2018-08-11T18:52:55.557Z,0.50
2018-08-11T18:55:23.848Z,0.40
2018-08-11T18:57:52.038Z,0.57
2018-08-11T19:00:20.828Z,0.65
2018-08-11T19:02:49.605Z,0.47
2018-08-11T19:05:17.808Z,0.60
2018-08-11T19:07:46.693Z,0.65
2018-08-11T19:10:15.546Z,0.70
2018-08-11T19:12:44.400Z,0.72
2018-08-11T19:15:14.327Z,0.93
2018-08-11T19:17:43.489Z,0.78
2018-08-11T19:20:13.101Z,0.70
2018-08-11T19:22:41.264Z,0.70
2018-08-11T19:25:10.934Z,0.50
2018-08-11T19:27:39.625Z,0.70
2018-08-11T19:30:09.062Z,0.95
2018-08-11T19:32:37.888Z,0.60
2018-08-11T19:35:06.853Z,0.60
2018-08-11T19:37:35.841Z,0.80
2018-08-11T19:40:05.413Z,0.57
2018-08-11T19:42:33.945Z,0.90
2018-08-11T19:45:02.435Z,0.73
2018-08-11T19:47:30.567Z,0.53
2018-08-11T19:49:59.028Z,0.77
2018-08-11T19:52:27.105Z,0.53
2018-08-11T19:54:55.357Z,0.73
2018-08-11T19:57:23.952Z,0.50
2018-08-11T19:59:52.523Z,0.70
2018-08-11T20:02:21.243Z,0.90
2018-08-11T20:04:50.961Z,0.70
2018-08-11T20:07:19.706Z,0.60
2018-08-11T20:09:48.331Z,0.87
2018-08-11T20:12:16.855Z,0.80
2018-08-11T20:14:45.097Z,0.72
2018-08-11T20:17:13.310Z,0.80
2018-08-11T20:19:41.806Z,0.90
2018-08-11T20:22:16.797Z,0.75
2018-08-11T20:24:46.741Z,0.70
2018-08-11T20:27:16.071Z,0.80
2018-08-11T20:29:44.400Z,0.70
2018-08-11T20:32:14.322Z,0.90
2018-08-11T20:34:43.210Z,0.83
2018-08-11T20:37:12.378Z,0.73
2018-08-11T20:39:41.489Z,0.90
2018-08-11T20:42:09.746Z,0.90
2018-08-11T20:44:38.550Z,0.90
2018-08-11T20:47:06.920Z,0.90
2018-08-11T20:49:35.237Z,1.07
2018-08-11T20:52:03.610Z,1.07
2018-08-11T20:54:32.372Z,1.10
2018-08-11T20:57:09.861Z,1.57
2018-08-11T20:59:38.363Z,0.93
2018-08-11T21:02:07.633Z,1.37
2018-08-11T21:04:35.853Z,1.20
2018-08-11T21:07:05.448Z,0.90
2018-08-11T21:09:33.637Z,1.20
2018-08-11T21:12:01.841Z,1.30
2018-08-11T21:14:30.651Z,1.17
2018-08-11T21:17:01.066Z,1.35
2018-08-11T21:19:29.662Z,1.05
2018-08-11T21:21:58.670Z,1.17
2018-08-11T21:24:27.680Z,0.80
2018-08-11T21:26:55.840Z,1.60
2018-08-11T21:29:24.197Z,1.30
2018-08-11T21:31:53.002Z,1.10
2018-08-11T21:34:21.577Z,1.10
2018-08-11T21:36:50.211Z,1.30
2018-08-11T21:39:18.725Z,1.20
2018-08-11T21:41:47.741Z,1.53
2018-08-11T21:44:16.488Z,1.63
2018-08-11T21:46:44.637Z,1.27
2018-08-11T21:49:14.208Z,1.60
2018-08-11T21:51:42.408Z,1.70
2018-08-11T21:54:11.061Z,1.50
2018-08-11T21:56:40.162Z,1.40
2018-08-11T21:59:08.929Z,1.50
2018-08-11T22:01:37.029Z,1.53
2018-08-11T22:04:05.521Z,1.40
2018-08-11T22:06:33.697Z,1.40
2018-08-11T22:09:01.976Z,1.57
2018-08-11T22:11:30.660Z,1.43
2018-08-11T22:14:00.077Z,1.70
2018-08-11T22:16:29.726Z,1.87
2018-08-11T22:18:58.138Z,1.90
2018-08-11T22:21:26.500Z,2.33
2018-08-11T22:23:54.793Z,1.50
2018-08-11T22:26:23.292Z,1.87
2018-08-11T22:28:51.678Z,1.67
2018-08-11T22:31:20.277Z,1.50
2018-08-11T22:33:49.143Z,1.70
2018-08-11T22:36:18.429Z,2.10
2018-08-11T22:38:47.833Z,2.20
2018-08-11T22:41:16.205Z,1.67
2018-08-11T22:43:44.502Z,1.67
2018-08-11T22:46:12.884Z,1.80
2018-08-11T22:48:41.445Z,1.50
2018-08-11T22:51:09.630Z,1.70
2018-08-11T22:53:37.792Z,1.50
2018-08-11T22:56:07.320Z,1.37
2018-08-11T22:58:35.502Z,1.80
2018-08-11T23:01:03.976Z,1.40
2018-08-11T23:03:32.357Z,1.70
2018-08-11T23:06:01.039Z,1.87
2018-08-11T23:08:30.357Z,1.80
2018-08-11T23:10:59.193Z,2.17
2018-08-11T23:13:27.517Z,1.77
2018-08-11T23:15:55.728Z,1.90
2018-08-11T23:18:24.089Z,1.80
2018-08-11T23:20:52.257Z,1.57
2018-08-11T23:23:20.953Z,1.60
2018-08-11T23:25:49.611Z,1.53
2018-08-11T23:28:18.681Z,1.73
2018-08-11T23:30:47.361Z,2.13
2018-08-11T23:33:16.243Z,2.00
2018-08-11T23:35:44.353Z,1.70
2018-08-11T23:38:12.660Z,2.07
2018-08-11T23:40:40.688Z,1.73
2018-08-11T23:43:08.990Z,1.77
2018-08-11T23:45:37.385Z,1.77
2018-08-11T23:48:07.249Z,2.10
2018-08-11T23:50:36.090Z,2.00
2018-08-11T23:53:04.285Z,1.90
2018-08-11T23:55:32.885Z,2.10
2018-08-11T23:58:01.835Z,1.90
